Terminal Aerodrome Forecast
Issued by NWS

Home | Current Version | Previous Version | Text Only | Print | Product List | Glossary On
Versions: 1 2 3 4 5 6 7 8 9 10 11 12
000
FTUS45 KABQ 281100
TAFTCC
TAF
KTCC 281131Z 2812/2912 25011KT P6SM BKN250
     FM281800 26018G28KT P6SM BKN250
     FM290100 25013KT P6SM SCT250=

USA.gov is the U.S. government's official web portal to all federal, state and local government web resources and services.